world map with OIZI marked

OIZI - Airport

This information may not be accurate or current and is not valid for navigation or flight planning. No warranty of fitness for any purpose is made or implied.

flag of Iran

Donate via PayPal

Additional information is available on the NEW Great Circle Mapper

Location
City:  Iranshahr, Iran
Near (Alt.):Iran Shahr
ICAO / IATA:OIZI / IHR

Details
Type:Airport (Aerodrome, Airfield)
Latitude:27°14'10"N (27.236117)
Longitude:60°43'12"E (60.720039)
Datum:WGS 1984
Elevation:2040 ft (622 m)
Runways:1
Longest:7711 × 150 ft (2350 × 45.5 m)

Time
Timezone:UTC+3:30 (DST+4:30)
Local Time:

Weather
METAR:OIZI  302100Z 10004KT CAVOK 31/17 Q1005
TAF:OIZI  (expired)

Related Locations
Nearby:
Farthest:IPC: 11840 mi / 19054 km
Easter Island (Isla de Pascua, Rapa Nui) [Mataveri Intl], VS, CL

Find:

   beyond  
but within

Other Information
Maps:
Links:
Sources:

  


 


Great Circle Mapper   Great Circle Mapper
Great Circle Mapper FAQ   Great Circle Mapper FAQ
  Karl's Home Page
KLSē   KLSē Home
   GC on Facebook
Airlines of the World   Airlines of the World
Donate via PayPal


Copyright © 2004-2014, Karl L. Swartz. All rights reserved.
All trademarks mentioned herein belong to their respective owners.

Please see credits for attribution and copyright information.

Karl Swartz <karl@kls2.com>
  Powered by FreeBSD
Valid HTML 4.01!
Labeled with ICRA
hCard Microformat
Geo Microformat